createdAt,value
2023-05-13T00:05:53.251Z,10.3
2023-05-13T00:11:52.775Z,10.2
2023-05-13T00:17:52.310Z,10.2
2023-05-13T00:23:53.315Z,10.2
2023-05-13T00:29:52.251Z,10.2
2023-05-13T00:35:52.383Z,10.3
2023-05-13T00:47:52.712Z,10.3
2023-05-13T00:53:53.005Z,10.3
2023-05-13T00:59:52.653Z,10.4
2023-05-13T01:05:51.953Z,10.4
2023-05-13T01:11:52.005Z,10.4
2023-05-13T01:17:52.595Z,10.5
2023-05-13T01:29:54.754Z,10.4
2023-05-13T01:41:52.252Z,10.4
2023-05-13T01:47:52.822Z,10.3
2023-05-13T01:53:52.288Z,10.2
2023-05-13T01:59:52.486Z,10.1
2023-05-13T02:12:34.496Z,10.2
2023-05-13T02:17:53.083Z,10.2
2023-05-13T02:23:53.035Z,10.2
2023-05-13T02:29:52.539Z,10.2
2023-05-13T02:41:52.725Z,10.1
2023-05-13T02:47:52.571Z,10
2023-05-13T02:53:53.383Z,9.9
2023-05-13T02:59:52.660Z,9.9
2023-05-13T03:05:52.355Z,9.9
2023-05-13T03:17:54.074Z,9.7
2023-05-13T03:23:52.673Z,9.7
2023-05-13T03:29:52.612Z,9.6
2023-05-13T03:35:52.748Z,9.6
2023-05-13T03:41:52.793Z,9.5
2023-05-13T03:47:52.274Z,9.4
2023-05-13T03:53:52.426Z,9.4
2023-05-13T03:59:53.617Z,9.4
2023-05-13T04:05:52.246Z,9.3
2023-05-13T04:11:53.123Z,9.4
2023-05-13T04:17:53.069Z,9.3
2023-05-13T04:23:53.293Z,9.2
2023-05-13T04:29:52.350Z,9.3
2023-05-13T04:35:52.905Z,9.3
2023-05-13T04:41:53.071Z,9.3
2023-05-13T04:47:52.589Z,9.3
2023-05-13T04:53:53.056Z,9.3
2023-05-13T04:59:53.617Z,9.4
2023-05-13T05:05:52.405Z,9.4
2023-05-13T05:11:53.279Z,9.4
2023-05-13T05:17:53.173Z,9.5
2023-05-13T05:23:53.418Z,9.4
2023-05-13T05:29:52.880Z,9.4
2023-05-13T05:35:52.877Z,9.4
2023-05-13T05:41:53.467Z,9.5
2023-05-13T05:47:53.514Z,9.5
2023-05-13T05:53:53.342Z,9.6
2023-05-13T05:59:52.565Z,9.7
2023-05-13T06:05:53.317Z,9.9
2023-05-13T06:11:53.560Z,9.9
2023-05-13T06:17:52.502Z,10.1
2023-05-13T06:23:52.951Z,10
2023-05-13T06:29:53.019Z,10.1
2023-05-13T06:35:54.301Z,10.1
2023-05-13T06:41:52.863Z,10.2
2023-05-13T06:47:53.999Z,10.2
2023-05-13T06:53:52.579Z,10.3
2023-05-13T06:59:53.233Z,10.3
2023-05-13T07:05:52.933Z,10.2
2023-05-13T07:11:53.884Z,10.2
2023-05-13T07:17:53.123Z,10.3
2023-05-13T07:23:52.819Z,10.3
2023-05-13T07:29:53.804Z,10.4
2023-05-13T07:35:53.232Z,10.4
2023-05-13T07:41:54.007Z,10.4
2023-05-13T07:47:52.448Z,10.4
2023-05-13T07:53:52.638Z,10.4
2023-05-13T07:59:52.535Z,10.4
2023-05-13T08:05:52.772Z,10.4
2023-05-13T08:11:53.266Z,10.6
2023-05-13T08:17:53.662Z,10.7
2023-05-13T08:23:53.543Z,10.3
2023-05-13T08:29:52.583Z,10.4
2023-05-13T08:35:52.493Z,10.3
2023-05-13T08:41:52.745Z,10.4
2023-05-13T08:47:52.578Z,10.5
2023-05-13T08:53:53.745Z,10.5
2023-05-13T08:59:53.402Z,10.5
2023-05-13T09:05:54.069Z,10.4
2023-05-13T09:11:53.747Z,10.4
2023-05-13T09:17:53.351Z,10.4
2023-05-13T09:23:52.684Z,10.9
2023-05-13T09:29:52.299Z,11
2023-05-13T09:35:52.343Z,10.8
2023-05-13T09:41:52.634Z,11.1
2023-05-13T09:47:53.171Z,11.2
2023-05-13T09:53:53.385Z,10.8
2023-05-13T09:59:54.125Z,11
2023-05-13T10:05:52.463Z,11.1
2023-05-13T10:17:52.681Z,11.1
2023-05-13T10:23:53.778Z,11.1
2023-05-13T10:29:53.540Z,11
2023-05-13T10:35:52.909Z,11
2023-05-13T10:41:51.986Z,10.4
2023-05-13T10:47:52.742Z,9.6
2023-05-13T10:53:53.152Z,10
2023-05-13T10:59:52.290Z,9.9
2023-05-13T11:05:52.441Z,10.2
2023-05-13T11:11:53.312Z,9.6
2023-05-13T11:17:52.808Z,10.3
2023-05-13T11:23:52.331Z,9.9
2023-05-13T11:29:52.249Z,9.9
2023-05-13T11:35:52.174Z,10
2023-05-13T11:41:52.413Z,10.7
2023-05-13T11:47:52.463Z,10.8
2023-05-13T11:53:52.208Z,10.9
2023-05-13T11:59:52.573Z,11
2023-05-13T12:05:52.649Z,11
2023-05-13T12:11:52.784Z,10.9
2023-05-13T12:17:52.864Z,11.1
2023-05-13T12:26:52.272Z,10.9
2023-05-13T12:32:52.471Z,10.8
2023-05-13T12:38:52.851Z,10.8
2023-05-13T12:44:52.300Z,10.9
2023-05-13T12:56:52.909Z,10.5
2023-05-13T13:02:53.140Z,10.1
2023-05-13T13:08:52.406Z,10.3
2023-05-13T13:14:52.415Z,10.2
2023-05-13T13:20:52.876Z,9.8
2023-05-13T13:26:53.054Z,10.2
2023-05-13T13:32:52.821Z,10.2
2023-05-13T13:38:53.059Z,10.1
2023-05-13T13:44:52.306Z,10.3
2023-05-13T13:50:53.010Z,10.8
2023-05-13T13:56:52.361Z,10.6
2023-05-13T14:08:52.327Z,10.8
2023-05-13T14:14:52.739Z,10.7
2023-05-13T14:20:52.627Z,10.9
2023-05-13T14:26:52.449Z,10.7
2023-05-13T14:32:52.940Z,10.5
2023-05-13T14:38:52.811Z,10.2
2023-05-13T14:44:53.855Z,10
2023-05-13T14:50:52.666Z,9.7
2023-05-13T14:56:52.491Z,10.4
2023-05-13T15:02:53.606Z,10.7
2023-05-13T15:08:53.453Z,10.5
2023-05-13T15:14:52.697Z,10.8
2023-05-13T15:20:52.938Z,10.8
2023-05-13T15:26:53.089Z,10.4
2023-05-13T15:32:53.330Z,10.5
2023-05-13T15:38:52.861Z,10.4
2023-05-13T15:44:54.233Z,10.5
2023-05-13T15:50:53.574Z,10.5
2023-05-13T15:56:53.088Z,10.4
2023-05-13T16:02:53.941Z,9.7
2023-05-13T16:08:53.656Z,10
2023-05-13T16:14:54.481Z,10.4
2023-05-13T16:26:52.755Z,10.7
2023-05-13T16:32:53.385Z,10.9
2023-05-13T16:38:53.161Z,12.8
2023-05-13T16:44:53.131Z,13
2023-05-13T16:50:52.372Z,12.3
2023-05-13T17:02:54.363Z,12.7
2023-05-13T17:08:52.443Z,13
2023-05-13T17:14:54.580Z,13.4
2023-05-13T17:20:52.464Z,13.2
2023-05-13T17:26:53.701Z,12.5
2023-05-13T17:38:53.419Z,12
2023-05-13T17:44:52.773Z,11.7
2023-05-13T17:50:52.453Z,11.7
2023-05-13T17:56:53.106Z,11.3
2023-05-13T18:02:53.229Z,11
2023-05-13T18:08:53.236Z,10.8
2023-05-13T18:14:54.171Z,11
2023-05-13T18:20:52.424Z,10.9
2023-05-13T18:26:52.955Z,10.7
2023-05-13T18:32:53.203Z,10.7
2023-05-13T18:38:53.592Z,10.7
2023-05-13T18:44:53.266Z,10.5
2023-05-13T18:50:52.740Z,10.5
2023-05-13T18:56:53.586Z,10.6
2023-05-13T19:02:53.791Z,10.4
2023-05-13T19:08:53.232Z,10.6
2023-05-13T19:14:52.977Z,10.6
2023-05-13T19:26:53.549Z,10.7
2023-05-13T19:32:53.575Z,10.9
2023-05-13T19:38:53.218Z,10.9
2023-05-13T19:44:52.430Z,11
2023-05-13T19:50:52.373Z,10.9
2023-05-13T19:56:54.025Z,10.8
2023-05-13T20:02:52.689Z,10.7
2023-05-13T20:08:52.688Z,10.7
2023-05-13T20:14:53.231Z,10.5
2023-05-13T20:20:52.434Z,10.5
2023-05-13T20:26:53.664Z,10.3
2023-05-13T20:38:52.548Z,10.2
2023-05-13T20:44:52.826Z,10.2
2023-05-13T20:50:53.418Z,10.2
2023-05-13T20:56:53.001Z,10.2
2023-05-13T21:02:52.828Z,10.1
2023-05-13T21:14:52.680Z,10.1
2023-05-13T21:20:53.347Z,10
2023-05-13T21:26:52.930Z,10.1
2023-05-13T21:32:53.176Z,10.2
2023-05-13T21:38:53.050Z,10.1
2023-05-13T21:44:52.658Z,10.1
2023-05-13T21:50:52.440Z,10.1
2023-05-13T21:56:52.850Z,10
2023-05-13T22:08:52.829Z,9.9
2023-05-13T22:14:52.789Z,9.8
2023-05-13T22:20:53.042Z,9.7
2023-05-13T22:26:52.984Z,9.7
2023-05-13T22:32:52.851Z,9.7
2023-05-13T22:38:53.590Z,9.6
2023-05-13T22:44:52.700Z,9.6
2023-05-13T22:50:53.060Z,9.5
2023-05-13T23:02:52.848Z,9.5
2023-05-13T23:08:52.889Z,9.4
2023-05-13T23:14:53.255Z,9.4
2023-05-13T23:20:52.812Z,9.3
2023-05-13T23:26:53.452Z,9.4
2023-05-13T23:32:52.774Z,9.3
2023-05-13T23:38:52.765Z,9.3
2023-05-13T23:44:53.022Z,9.2
2023-05-13T23:50:53.669Z,9.2
2023-05-13T23:56:53.410Z,9.1
